VJC146 VVTS-VVDN
Flight info
| Callsign | VJC146 |
|---|---|
| Flight time | N/A |
| Altitude | 30000 |
| Route | VVTS AC W1 PLK DCT MISIN VVDN |
| Aircraft | A320/M-V/N |
Departure
| Time | N/A |
|---|---|
| Airport | Tan Son Nhat International Airport (VVTS) |
Arrival
| Time | 2026-05-07 14:11 |
|---|---|
| Airport | Da Nang International Airport (VVDN) |
| Time | Latitude | Longitude | Altitude | Speed | Heading |
|---|---|---|---|---|---|
| 2026-05-07 13:26 | 11.84281 | 107.67566 | 15001 ft | 406 kts | 25° |
| 2026-05-07 13:26 | 11.85465 | 107.68207 | 15001 ft | 406 kts | 25° |
| 2026-05-07 13:26 | 11.86045 | 107.68521 | 15001 ft | 406 kts | 25° |
| 2026-05-07 13:26 | 11.88213 | 107.69694 | 15001 ft | 406 kts | 25° |
| 2026-05-07 13:27 | 11.89366 | 107.70319 | 15001 ft | 406 kts | 25° |
| 2026-05-07 13:27 | 11.91875 | 107.71677 | 15001 ft | 406 kts | 25° |
| 2026-05-07 13:27 | 11.94369 | 107.73027 | 15001 ft | 406 kts | 25° |
| 2026-05-07 13:28 | 11.96908 | 107.74401 | 15001 ft | 406 kts | 25° |
| 2026-05-07 13:28 | 11.99391 | 107.75745 | 15001 ft | 406 kts | 25° |
| 2026-05-07 13:28 | 12.00025 | 107.76088 | 15001 ft | 406 kts | 25° |
| 2026-05-07 13:28 | 12.00492 | 107.76341 | 15001 ft | 406 kts | 25° |
| 2026-05-07 13:29 | 12.02978 | 107.77687 | 15001 ft | 406 kts | 25° |
| 2026-05-07 13:29 | 12.05473 | 107.79040 | 15001 ft | 406 kts | 25° |
| 2026-05-07 13:29 | 12.07976 | 107.80398 | 15001 ft | 406 kts | 25° |
| 2026-05-07 13:29 | 12.10463 | 107.81747 | 15001 ft | 406 kts | 25° |
| 2026-05-07 13:30 | 12.12774 | 107.83000 | 15001 ft | 406 kts | 25° |
| 2026-05-07 13:30 | 12.13018 | 107.83133 | 15001 ft | 406 kts | 25° |
| 2026-05-07 13:30 | 12.13802 | 107.83557 | 15001 ft | 406 kts | 25° |
| 2026-05-07 13:30 | 12.16314 | 107.84919 | 15001 ft | 406 kts | 25° |
| 2026-05-07 13:31 | 12.18830 | 107.86284 | 15001 ft | 406 kts | 25° |
| 2026-05-07 13:31 | 12.21305 | 107.87629 | 15001 ft | 406 kts | 25° |
| 2026-05-07 13:31 | 12.23828 | 107.88999 | 15009 ft | 416 kts | 25° |
| 2026-05-07 13:31 | 12.26363 | 107.90374 | 14998 ft | 410 kts | 25° |
| 2026-05-07 13:32 | 12.28864 | 107.91737 | 14998 ft | 405 kts | 25° |
| 2026-05-07 13:32 | 12.31348 | 107.93086 | 15001 ft | 406 kts | 25° |
| 2026-05-07 13:32 | 12.33852 | 107.94446 | 15001 ft | 406 kts | 25° |
| 2026-05-07 13:32 | 12.36356 | 107.95805 | 15001 ft | 406 kts | 25° |
| 2026-05-07 13:33 | 12.38868 | 107.97169 | 15001 ft | 406 kts | 25° |
| 2026-05-07 13:33 | 12.41340 | 107.98513 | 15001 ft | 406 kts | 25° |
| 2026-05-07 13:33 | 12.43827 | 107.99867 | 15001 ft | 406 kts | 25° |
| 2026-05-07 13:33 | 12.46360 | 108.01246 | 15001 ft | 406 kts | 25° |
| 2026-05-07 13:34 | 12.47999 | 108.02137 | 15001 ft | 406 kts | 25° |
| 2026-05-07 13:34 | 12.52310 | 108.04482 | 15001 ft | 406 kts | 25° |
| 2026-05-07 13:34 | 12.54849 | 108.05864 | 15001 ft | 406 kts | 25° |
| 2026-05-07 13:35 | 12.57345 | 108.07223 | 15001 ft | 406 kts | 25° |
| 2026-05-07 13:35 | 12.59839 | 108.08581 | 15001 ft | 406 kts | 25° |
| 2026-05-07 13:35 | 12.62334 | 108.09940 | 15001 ft | 406 kts | 25° |
| 2026-05-07 13:35 | 12.64832 | 108.11301 | 15001 ft | 406 kts | 25° |
| 2026-05-07 13:36 | 12.67351 | 108.12671 | 15000 ft | 406 kts | 24° |
| 2026-05-07 13:36 | 12.69977 | 108.13663 | 14966 ft | 398 kts | 6° |
| 2026-05-07 13:36 | 12.72698 | 108.13615 | 14967 ft | 390 kts | 344° |
| 2026-05-07 13:36 | 12.75268 | 108.12783 | 15004 ft | 387 kts | 336° |
| 2026-05-07 13:37 | 12.77772 | 108.11801 | 15008 ft | 387 kts | 338° |
| 2026-05-07 13:37 | 12.80402 | 108.11111 | 15000 ft | 391 kts | 347° |
| 2026-05-07 13:37 | 12.83125 | 108.10841 | 15004 ft | 394 kts | 354° |
| 2026-05-07 13:37 | 12.85886 | 108.10757 | 15005 ft | 394 kts | 355° |
| 2026-05-07 13:38 | 12.88633 | 108.10692 | 15004 ft | 394 kts | 355° |
| 2026-05-07 13:38 | 12.91371 | 108.10564 | 15002 ft | 393 kts | 353° |
| 2026-05-07 13:38 | 12.93336 | 108.10424 | 15002 ft | 393 kts | 352° |
| 2026-05-07 13:39 | 12.95356 | 108.10255 | 15002 ft | 393 kts | 352° |
| 2026-05-07 13:39 | 12.98088 | 108.10014 | 15001 ft | 393 kts | 352° |
| 2026-05-07 13:39 | 13.00777 | 108.09793 | 15001 ft | 393 kts | 352° |
| 2026-05-07 13:39 | 13.03546 | 108.09587 | 15001 ft | 393 kts | 353° |
| 2026-05-07 13:40 | 13.06267 | 108.09400 | 15001 ft | 393 kts | 353° |
| 2026-05-07 13:40 | 13.08989 | 108.09215 | 15001 ft | 393 kts | 353° |
| 2026-05-07 13:40 | 13.11738 | 108.09020 | 15001 ft | 393 kts | 352° |
| 2026-05-07 13:40 | 13.14460 | 108.08820 | 15001 ft | 393 kts | 352° |
| 2026-05-07 13:41 | 13.17193 | 108.08616 | 15001 ft | 393 kts | 352° |
| 2026-05-07 13:41 | 13.19921 | 108.08414 | 15001 ft | 393 kts | 352° |
| 2026-05-07 13:41 | 13.22650 | 108.08214 | 15001 ft | 393 kts | 352° |
| 2026-05-07 13:41 | 13.25366 | 108.08017 | 15001 ft | 393 kts | 352° |
| 2026-05-07 13:42 | 13.28098 | 108.07818 | 15001 ft | 393 kts | 352° |
| 2026-05-07 13:42 | 13.30824 | 108.07620 | 15001 ft | 393 kts | 352° |
| 2026-05-07 13:42 | 13.33530 | 108.07422 | 15001 ft | 393 kts | 352° |
| 2026-05-07 13:42 | 13.36260 | 108.07221 | 15001 ft | 393 kts | 352° |
| 2026-05-07 13:43 | 13.38998 | 108.07018 | 15001 ft | 393 kts | 352° |
| 2026-05-07 13:43 | 13.41724 | 108.06815 | 15001 ft | 393 kts | 352° |
| 2026-05-07 13:43 | 13.44443 | 108.06612 | 15001 ft | 393 kts | 352° |
| 2026-05-07 13:43 | 13.47174 | 108.06410 | 15001 ft | 393 kts | 352° |
| 2026-05-07 13:44 | 13.48575 | 108.06306 | 15001 ft | 393 kts | 352° |
| 2026-05-07 13:44 | 13.51331 | 108.06101 | 15006 ft | 401 kts | 352° |
| 2026-05-07 13:44 | 13.54132 | 108.05891 | 15000 ft | 401 kts | 352° |
| 2026-05-07 13:44 | 13.56878 | 108.05691 | 14996 ft | 393 kts | 352° |
| 2026-05-07 13:45 | 13.59340 | 108.05510 | 15000 ft | 393 kts | 352° |
| 2026-05-07 13:45 | 13.60401 | 108.05431 | 15001 ft | 393 kts | 352° |
| 2026-05-07 13:45 | 13.63096 | 108.05229 | 15001 ft | 393 kts | 352° |
| 2026-05-07 13:45 | 13.65822 | 108.05025 | 15001 ft | 393 kts | 352° |
| 2026-05-07 13:46 | 13.68554 | 108.04821 | 15001 ft | 393 kts | 352° |
| 2026-05-07 13:46 | 13.71281 | 108.04619 | 15001 ft | 393 kts | 352° |
| 2026-05-07 13:46 | 13.74008 | 108.04417 | 15001 ft | 393 kts | 352° |
| 2026-05-07 13:46 | 13.76733 | 108.04215 | 15001 ft | 393 kts | 352° |
| 2026-05-07 13:47 | 13.79492 | 108.04009 | 15001 ft | 393 kts | 352° |
| 2026-05-07 13:47 | 13.81313 | 108.03874 | 15001 ft | 393 kts | 352° |
| 2026-05-07 13:47 | 13.87778 | 108.03393 | 15001 ft | 393 kts | 352° |
| 2026-05-07 13:48 | 13.93133 | 108.02993 | 15001 ft | 393 kts | 352° |
| 2026-05-07 13:48 | 13.95867 | 108.02789 | 15001 ft | 393 kts | 352° |
| 2026-05-07 13:48 | 13.98602 | 108.02586 | 15001 ft | 393 kts | 352° |
| 2026-05-07 13:49 | 14.01328 | 108.02384 | 15001 ft | 393 kts | 353° |
| 2026-05-07 13:49 | 14.04073 | 108.02412 | 14996 ft | 396 kts | 1° |
| 2026-05-07 13:49 | 14.06821 | 108.02729 | 14999 ft | 398 kts | 4° |
| 2026-05-07 13:49 | 14.09564 | 108.03129 | 15006 ft | 398 kts | 4° |
| 2026-05-07 13:50 | 14.12297 | 108.03481 | 15006 ft | 397 kts | 3° |
| 2026-05-07 13:50 | 14.15063 | 108.03742 | 15002 ft | 396 kts | 1° |
| 2026-05-07 13:50 | 14.17808 | 108.03934 | 15002 ft | 396 kts | 0° |
| 2026-05-07 13:50 | 14.20571 | 108.04115 | 15002 ft | 396 kts | 0° |
| 2026-05-07 13:51 | 14.23308 | 108.04318 | 15001 ft | 396 kts | 1° |
| 2026-05-07 13:51 | 14.26052 | 108.04551 | 15001 ft | 397 kts | 1° |
| 2026-05-07 13:51 | 14.28823 | 108.04802 | 15001 ft | 397 kts | 1° |
| 2026-05-07 13:51 | 14.31579 | 108.05048 | 15004 ft | 401 kts | 1° |
| 2026-05-07 13:52 | 14.34414 | 108.05291 | 15002 ft | 403 kts | 1° |
| 2026-05-07 13:52 | 14.37183 | 108.05522 | 15001 ft | 402 kts | 1° |
| 2026-05-07 13:52 | 14.39993 | 108.05755 | 15001 ft | 402 kts | 1° |
| 2026-05-07 13:52 | 14.42788 | 108.05988 | 15001 ft | 402 kts | 1° |
| 2026-05-07 13:53 | 14.45590 | 108.06225 | 15001 ft | 402 kts | 1° |
| 2026-05-07 13:53 | 14.48376 | 108.06462 | 15001 ft | 403 kts | 1° |
| 2026-05-07 13:53 | 14.51173 | 108.06699 | 15001 ft | 403 kts | 1° |
| 2026-05-07 13:53 | 14.53956 | 108.06934 | 15001 ft | 402 kts | 1° |
| 2026-05-07 13:54 | 14.56747 | 108.07169 | 15001 ft | 402 kts | 1° |
| 2026-05-07 13:54 | 14.59546 | 108.07405 | 15001 ft | 403 kts | 1° |
| 2026-05-07 13:54 | 14.62342 | 108.07642 | 15001 ft | 403 kts | 1° |
| 2026-05-07 13:54 | 14.65130 | 108.07878 | 15001 ft | 402 kts | 1° |
| 2026-05-07 13:55 | 14.67959 | 108.08118 | 15001 ft | 402 kts | 1° |
| 2026-05-07 13:55 | 14.70720 | 108.08352 | 15001 ft | 402 kts | 1° |
| 2026-05-07 13:55 | 14.73550 | 108.08591 | 15001 ft | 403 kts | 1° |
| 2026-05-07 13:55 | 14.76338 | 108.08828 | 14995 ft | 403 kts | 1° |
| 2026-05-07 13:56 | 14.79131 | 108.09064 | 14813 ft | 402 kts | 1° |
| 2026-05-07 13:56 | 14.81912 | 108.09299 | 14545 ft | 400 kts | 1° |
| 2026-05-07 13:56 | 14.84683 | 108.09534 | 14271 ft | 398 kts | 1° |
| 2026-05-07 13:56 | 14.87444 | 108.09769 | 13997 ft | 397 kts | 1° |
| 2026-05-07 13:57 | 14.90192 | 108.10002 | 13722 ft | 395 kts | 1° |
| 2026-05-07 13:57 | 14.92922 | 108.10233 | 13449 ft | 394 kts | 1° |
| 2026-05-07 13:57 | 14.95644 | 108.10464 | 13175 ft | 392 kts | 1° |
| 2026-05-07 13:57 | 14.98325 | 108.10692 | 12904 ft | 391 kts | 1° |
| 2026-05-07 13:58 | 15.01063 | 108.10924 | 12626 ft | 389 kts | 1° |
| 2026-05-07 13:58 | 15.03722 | 108.11150 | 12355 ft | 388 kts | 1° |
| 2026-05-07 13:58 | 15.06403 | 108.11378 | 12081 ft | 386 kts | 1° |
| 2026-05-07 13:58 | 15.09086 | 108.11606 | 11805 ft | 384 kts | 1° |
| 2026-05-07 13:59 | 15.11717 | 108.11831 | 11528 ft | 376 kts | 1° |
| 2026-05-07 13:59 | 15.14341 | 108.12054 | 11255 ft | 376 kts | 1° |
| 2026-05-07 13:59 | 15.16940 | 108.12274 | 10950 ft | 374 kts | 1° |
| 2026-05-07 13:59 | 15.19523 | 108.12493 | 10538 ft | 367 kts | 1° |
| 2026-05-07 14:00 | 15.22037 | 108.12708 | 10113 ft | 360 kts | 1° |
| 2026-05-07 14:00 | 15.24503 | 108.12918 | 9690 ft | 354 kts | 1° |
| 2026-05-07 14:00 | 15.26915 | 108.13124 | 9269 ft | 348 kts | 1° |
| 2026-05-07 14:00 | 15.29308 | 108.13328 | 8845 ft | 342 kts | 1° |
| 2026-05-07 14:01 | 15.31698 | 108.13531 | 8415 ft | 338 kts | 1° |
| 2026-05-07 14:01 | 15.34007 | 108.13726 | 8065 ft | 336 kts | 1° |
| 2026-05-07 14:01 | 15.36338 | 108.13923 | 7983 ft | 337 kts | 1° |
| 2026-05-07 14:01 | 15.38711 | 108.14126 | 7974 ft | 334 kts | 1° |
| 2026-05-07 14:02 | 15.40223 | 108.14257 | 7847 ft | 327 kts | 1° |
| 2026-05-07 14:02 | 15.42466 | 108.14454 | 7497 ft | 321 kts | 1° |
| 2026-05-07 14:02 | 15.45419 | 108.14709 | 6902 ft | 317 kts | 1° |
| 2026-05-07 14:02 | 15.46871 | 108.14834 | 6603 ft | 315 kts | 1° |
| 2026-05-07 14:03 | 15.49046 | 108.15020 | 6162 ft | 311 kts | 1° |
| 2026-05-07 14:03 | 15.51174 | 108.15207 | 5977 ft | 304 kts | 3° |
| 2026-05-07 14:03 | 15.53277 | 108.15551 | 5962 ft | 308 kts | 8° |
| 2026-05-07 14:03 | 15.55370 | 108.16007 | 5980 ft | 308 kts | 9° |
| 2026-05-07 14:04 | 15.57458 | 108.16482 | 5772 ft | 304 kts | 9° |
| 2026-05-07 14:04 | 15.59503 | 108.16924 | 5436 ft | 297 kts | 9° |
| 2026-05-07 14:04 | 15.61521 | 108.17327 | 5098 ft | 291 kts | 8° |
| 2026-05-07 14:04 | 15.63501 | 108.17704 | 4985 ft | 288 kts | 8° |
| 2026-05-07 14:05 | 15.65477 | 108.18078 | 4976 ft | 289 kts | 8° |
| 2026-05-07 14:05 | 15.67433 | 108.18455 | 4990 ft | 289 kts | 9° |
| 2026-05-07 14:05 | 15.69411 | 108.18842 | 4982 ft | 289 kts | 9° |
| 2026-05-07 14:05 | 15.71392 | 108.19231 | 4991 ft | 288 kts | 9° |
| 2026-05-07 14:06 | 15.73313 | 108.19609 | 4977 ft | 276 kts | 9° |
| 2026-05-07 14:06 | 15.75182 | 108.19976 | 4976 ft | 273 kts | 9° |
| 2026-05-07 14:06 | 15.77054 | 108.20340 | 4981 ft | 273 kts | 9° |
| 2026-05-07 14:06 | 15.78950 | 108.20710 | 4974 ft | 273 kts | 9° |
| 2026-05-07 14:07 | 15.80781 | 108.21067 | 4823 ft | 271 kts | 9° |
| 2026-05-07 14:07 | 15.82633 | 108.21429 | 4392 ft | 269 kts | 9° |
| 2026-05-07 14:07 | 15.84475 | 108.21788 | 3880 ft | 270 kts | 10° |
| 2026-05-07 14:07 | 15.86301 | 108.22145 | 3367 ft | 266 kts | 11° |
| 2026-05-07 14:08 | 15.88111 | 108.22488 | 3010 ft | 261 kts | 7° |
| 2026-05-07 14:08 | 15.89829 | 108.22302 | 2947 ft | 242 kts | 340° |
| 2026-05-07 14:08 | 15.91361 | 108.21758 | 2949 ft | 219 kts | 351° |
| 2026-05-07 14:08 | 15.92801 | 108.21602 | 2962 ft | 202 kts | 355° |
| 2026-05-07 14:09 | 15.94171 | 108.21473 | 2796 ft | 197 kts | 354° |
| 2026-05-07 14:09 | 15.95531 | 108.21314 | 2409 ft | 194 kts | 353° |
| 2026-05-07 14:09 | 15.96868 | 108.21131 | 1804 ft | 192 kts | 352° |
| 2026-05-07 14:09 | 15.98180 | 108.20944 | 1219 ft | 191 kts | 352° |
| 2026-05-07 14:10 | 15.99487 | 108.20753 | 690 ft | 187 kts | 352° |
| 2026-05-07 14:10 | 16.00708 | 108.20575 | 486 ft | 167 kts | 352° |
| 2026-05-07 14:10 | 16.01795 | 108.20417 | 321 ft | 149 kts | 352° |
| 2026-05-07 14:10 | 16.02777 | 108.20274 | 112 ft | 136 kts | 352° |
| 2026-05-07 14:11 | 16.03605 | 108.20155 | 47 ft | 86 kts | 352° |
| 2026-05-07 14:11 | 16.03953 | 108.20106 | 47 ft | 24 kts | 352° |
| 2026-05-07 14:11 | 16.01698 | 108.20431 | 339 ft | 150 kts | 352° |
| 2026-05-07 14:11 | 16.02686 | 108.20287 | 138 ft | 137 kts | 352° |
| 2026-05-07 14:12 | 16.04071 | 108.20089 | 47 ft | 22 kts | 352° |
| 2026-05-07 14:12 | 16.04131 | 108.20080 | 47 ft | 6 kts | 352° |
| 2026-05-07 14:12 | 16.04179 | 108.20074 | 47 ft | 8 kts | 352° |
| 2026-05-07 14:12 | 16.04233 | 108.20066 | 47 ft | 9 kts | 352° |
| 2026-05-07 14:13 | 16.04299 | 108.20056 | 47 ft | 11 kts | 352° |
| 2026-05-07 14:13 | 16.04382 | 108.20060 | 47 ft | 12 kts | 59° |
| 2026-05-07 14:13 | 16.04403 | 108.20167 | 47 ft | 17 kts | 73° |
| 2026-05-07 14:13 | 16.04451 | 108.20218 | 47 ft | 9 kts | 48° |
| 2026-05-07 14:14 | 16.04470 | 108.20255 | 47 ft | 1 kts | 75° |
| 2026-05-07 14:14 | 16.04475 | 108.20290 | 47 ft | 8 kts | 81° |
| 2026-05-07 14:14 | 16.04479 | 108.20325 | 47 ft | 2 kts | 83° |
| 2026-05-07 14:14 | 16.04481 | 108.20336 | 47 ft | 0 kts | 82° |
| 2026-05-07 14:15 | 16.04480 | 108.20333 | 47 ft | 0 kts | 82° |